ADDS METAR Data INFO
IDs: Format: Raw Decoded Include TAF

Data at: 0704 UTC 19 Oct 2017

KLBF 190653Z AUTO 00000KT 10SM CLR 04/01 A3009 RMK AO2 SLP181 T00390011
KLBF 190553Z AUTO 10004KT 10SM CLR 04/01 A3010 RMK AO2 SLP183 T00440011 10161 20033 402440028 58001
KLBF 190453Z AUTO 09003KT 10SM CLR 05/02 A3010 RMK AO2 SLP184 T00500017
KLBF 190353Z AUTO 09003KT 10SM CLR 05/02 A3010 RMK AO2 SLP192 T00500017
KLBF 190253Z AUTO 00000KT 10SM CLR 08/02 A3010 RMK AO2 SLP194 T00780017 50005
KLBF 190153Z AUTO 08003KT 10SM CLR 09/02 A3011 RMK AO2 SLP200 T00890022
KLBF 190053Z AUTO 00000KT 10SM CLR 11/02 A3010 RMK AO2 SLP198 T01110017
KLBF 182353Z AUTO 04005KT 10SM CLR 16/02 A3009 RMK AO2 SLP186 T01610022 10244 20161 53014
KLBF 182253Z AUTO 05010KT 10SM CLR 21/01 A3007 RMK AO2 SLP173 T02110006
KLBF 182153Z AUTO 04009KT 10SM CLR 23/01 A3006 RMK AO2 SLP165 T02280011
KLBF 182053Z AUTO 04014KT 10SM CLR 24/01 A3004 RMK AO2 SLP161 T02390006 53001
KLBF 181953Z AUTO 03011KT 10SM CLR 24/00 A3004 RMK AO2 SLP160 T02390000
KLBF 181853Z AUTO 03017G20KT 10SM CLR 24/M01 A3004 RMK AO2 SLP160 T02391006
KLBF 181753Z AUTO 02014G20KT 10SM CLR 24/M01 A3004 RMK AO2 PK WND 03027/1712 SLP153 T02391011 10239 20028 53020
KLBF 181653Z AUTO 02018G25KT 10SM CLR 23/M02 A3000 RMK AO2 WSHFT 1622 SLP142 T02331022
KLBF 181642Z AUTO 01016G21KT 10SM CLR 23/M02 A3000 RMK AO2 WSHFT 1622 T02331017
KLBF 181553Z AUTO 30008KT 10SM CLR 17/04 A2999 RMK AO2 SLP139 T01720039
KLBF 181453Z AUTO 28010KT 10SM CLR 12/02 A2998 RMK AO2 SLP144 T01220022 53019
KLBF 181353Z AUTO 30006KT 10SM CLR 06/02 A2994 RMK AO2 SLP138 T00610022
KLBF 181253Z AUTO 31006KT 10SM CLR 04/02 A2993 RMK AO2 SLP133 T00390017
KLBF 181153Z AUTO 29004KT 10SM CLR 06/02 A2992 RMK AO2 SLP122 T00560022 10150 20056 53004
KLBF 181053Z AUTO 32007KT 10SM CLR 08/02 A2991 RMK AO2 SLP115 T00780017
KLBF 180953Z AUTO 30007KT 10SM CLR 09/02 A2990 RMK AO2 SLP107 T00940017
KLBF 180853Z AUTO 32006KT 10SM CLR 08/01 A2990 RMK AO2 SLP110 T00830006 58013
KLBF 180753Z AUTO 32006KT 10SM CLR 07/02 A2991 RMK AO2 SLP115 T00720017
KLBF 180653Z AUTO 32003KT 10SM CLR 08/02 A2993 RMK AO2 SLP121 T00830022
KLBF 180553Z AUTO 24005KT 10SM CLR 14/01 A2994 RMK AO2 SLP121 T01440011 10211 20111 402721006 56002
KLBF 180453Z AUTO 17008KT 10SM CLR 14/02 A2994 RMK AO2 SLP126 T01440017
KLBF 180353Z AUTO 18007KT 10SM CLR 17/01 A2995 RMK AO2 SLP129 T01670011
KLBF 180253Z AUTO 12005KT 10SM CLR 13/01 A2995 RMK AO2 SLP139 T01280006 58003
KLBF 180153Z AUTO 14003KT 10SM CLR 13/01 A2996 RMK AO2 SLP148 T01330006
KLBF 180053Z AUTO 17007KT 10SM CLR 17/01 A2996 RMK AO2 SLP147 T01720006
KLBF 172353Z AUTO 19008KT 10SM CLR 21/M01 A2996 RMK AO2 SLP142 T02061006 10272 20206 56013
KLBF 172253Z AUTO 19009KT 10SM CLR 24/M01 A2996 RMK AO2 SLP140 T02441006
KLBF 172153Z AUTO 21006KT 10SM CLR 26/M01 A2998 RMK AO2 SLP144 T02611011
KLBF 172053Z AUTO 22007KT 10SM CLR 26/M03 A3000 RMK AO2 SLP149 T02611028 56032
KLBF 171953Z AUTO 28007KT 10SM CLR 26/M02 A3003 RMK AO2 SLP160 T02611022